createdAt,value
2022-10-19T00:00:25.631Z,20
2022-10-19T00:01:25.618Z,19
2022-10-19T00:02:25.618Z,18
2022-10-19T00:03:25.631Z,14
2022-10-19T00:04:25.632Z,18
2022-10-19T00:05:25.619Z,17
2022-10-19T00:06:25.632Z,15
2022-10-19T00:07:25.633Z,15
2022-10-19T00:08:25.633Z,18
2022-10-19T00:09:25.620Z,20
2022-10-19T00:10:25.634Z,18
2022-10-19T00:11:25.634Z,22
2022-10-19T00:12:25.635Z,15
2022-10-19T00:13:25.621Z,17
2022-10-19T00:14:25.635Z,17
2022-10-19T00:15:25.636Z,18
2022-10-19T00:16:25.622Z,18
2022-10-19T00:17:25.623Z,17
2022-10-19T00:18:25.636Z,18
2022-10-19T00:19:25.637Z,19
2022-10-19T00:20:25.624Z,17
2022-10-19T00:21:25.624Z,21
2022-10-19T00:22:25.638Z,20
2022-10-19T00:23:25.638Z,18
2022-10-19T00:24:25.625Z,16
2022-10-19T00:25:25.638Z,11
2022-10-19T00:26:25.639Z,17
2022-10-19T00:27:25.639Z,17
2022-10-19T00:28:25.626Z,18
2022-10-19T00:29:25.640Z,18
2022-10-19T00:30:25.641Z,19
2022-10-19T00:31:25.640Z,22
2022-10-19T00:32:25.628Z,21
2022-10-19T00:33:25.641Z,19
2022-10-19T00:34:25.642Z,18
2022-10-19T00:35:25.628Z,19
2022-10-19T00:36:25.629Z,17
2022-10-19T00:37:25.642Z,18
2022-10-19T00:38:25.643Z,19
2022-10-19T00:39:25.630Z,18
2022-10-19T00:40:25.630Z,16
2022-10-19T00:41:25.643Z,19
2022-10-19T00:42:25.644Z,18
2022-10-19T00:43:25.631Z,18
2022-10-19T00:44:25.644Z,22
2022-10-19T00:45:25.645Z,22
2022-10-19T00:46:25.645Z,21
2022-10-19T00:47:25.632Z,23
2022-10-19T00:48:25.646Z,20
2022-10-19T00:49:25.690Z,22
2022-10-19T00:50:25.646Z,19
2022-10-19T00:51:25.634Z,20
2022-10-19T00:52:25.647Z,21
2022-10-19T00:53:25.648Z,21
2022-10-19T00:54:25.648Z,20
2022-10-19T00:55:25.635Z,19
2022-10-19T00:56:25.648Z,20
2022-10-19T00:57:25.650Z,18
2022-10-19T00:58:25.636Z,18
2022-10-19T00:59:25.636Z,19
2022-10-19T01:00:25.650Z,19
2022-10-19T01:01:25.650Z,21
2022-10-19T01:02:25.637Z,20
2022-10-19T01:03:25.651Z,21
2022-10-19T01:04:25.651Z,20
2022-10-19T01:05:25.651Z,17
2022-10-19T01:06:25.638Z,21
2022-10-19T01:07:25.652Z,21
2022-10-19T01:08:25.653Z,23
2022-10-19T01:09:25.652Z,20
2022-10-19T01:10:25.640Z,19
2022-10-19T01:11:25.653Z,22
2022-10-19T01:12:25.654Z,21
2022-10-19T01:13:25.664Z,21
2022-10-19T01:14:25.641Z,17
2022-10-19T01:15:25.654Z,18
2022-10-19T01:16:25.655Z,19
2022-10-19T01:17:25.642Z,14
2022-10-19T01:18:25.642Z,15
2022-10-19T01:19:25.656Z,17
2022-10-19T01:20:25.656Z,14
2022-10-19T01:21:25.643Z,17
2022-10-19T01:22:25.657Z,18
2022-10-19T01:23:25.657Z,14
2022-10-19T01:24:25.657Z,18
2022-10-19T01:25:25.657Z,17
2022-10-19T01:26:25.658Z,16
2022-10-19T01:27:25.659Z,12
2022-10-19T01:28:25.659Z,14
2022-10-19T01:29:25.646Z,14
2022-10-19T01:30:25.659Z,18
2022-10-19T01:31:25.660Z,17
2022-10-19T01:32:25.647Z,20
2022-10-19T01:33:25.647Z,21
2022-10-19T01:34:25.660Z,20
2022-10-19T01:35:25.662Z,18
2022-10-19T01:36:25.648Z,16
2022-10-19T01:37:25.726Z,19
2022-10-19T01:38:25.662Z,19
2022-10-19T01:39:25.662Z,19
2022-10-19T01:40:25.649Z,18
2022-10-19T01:41:25.663Z,17
2022-10-19T01:42:25.663Z,18
2022-10-19T01:43:25.663Z,20
2022-10-19T01:44:25.651Z,19
2022-10-19T01:45:25.664Z,19
2022-10-19T01:46:25.665Z,19
2022-10-19T01:47:25.665Z,22
2022-10-19T01:48:25.652Z,21
2022-10-19T01:49:25.665Z,19
2022-10-19T01:50:25.666Z,20
2022-10-19T01:51:25.653Z,21
2022-10-19T01:52:25.653Z,19
2022-10-19T01:53:25.667Z,20
2022-10-19T01:54:25.667Z,23
2022-10-19T01:55:25.654Z,20
2022-10-19T01:56:25.654Z,21
2022-10-19T01:57:25.668Z,21
2022-10-19T01:58:25.668Z,19
2022-10-19T01:59:25.655Z,19
2022-10-19T02:00:25.669Z,23
2022-10-19T02:02:25.669Z,24
2022-10-19T02:03:25.657Z,21
2022-10-19T02:04:25.670Z,20
2022-10-19T02:05:25.671Z,25
2022-10-19T02:06:25.671Z,23
2022-10-19T02:07:25.658Z,25
2022-10-19T02:08:25.671Z,21
2022-10-19T02:09:25.672Z,22
2022-10-19T02:10:25.659Z,21
2022-10-19T02:11:25.659Z,21
2022-10-19T02:12:25.673Z,20
2022-10-19T02:13:25.673Z,17
2022-10-19T02:14:25.660Z,16
2022-10-19T02:15:25.660Z,16
2022-10-19T02:16:25.674Z,16
2022-10-19T02:17:25.674Z,16
2022-10-19T02:18:25.661Z,17
2022-10-19T02:19:25.675Z,14
2022-10-19T02:20:25.675Z,17
2022-10-19T02:21:25.676Z,17
2022-10-19T02:22:25.663Z,19
2022-10-19T02:23:25.676Z,19
2022-10-19T02:24:25.677Z,16
2022-10-19T02:25:25.677Z,17
2022-10-19T02:26:25.664Z,14
2022-10-19T02:27:25.677Z,14
2022-10-19T02:28:25.678Z,14
2022-10-19T02:29:25.665Z,13
2022-10-19T02:30:25.665Z,15
2022-10-19T02:31:25.679Z,14
2022-10-19T02:32:25.680Z,15
2022-10-19T02:33:25.666Z,19
2022-10-19T02:34:25.744Z,19
2022-10-19T02:35:25.680Z,18
2022-10-19T02:36:25.680Z,18
2022-10-19T02:37:25.668Z,21
2022-10-19T02:38:25.681Z,17
2022-10-19T02:39:25.681Z,17
2022-10-19T02:40:25.682Z,16
2022-10-19T02:41:25.669Z,16
2022-10-19T02:42:25.683Z,18
2022-10-19T02:43:25.683Z,21
2022-10-19T02:44:25.683Z,18
2022-10-19T02:45:25.670Z,20
2022-10-19T02:46:25.684Z,17
2022-10-19T02:47:25.684Z,15
2022-10-19T02:48:25.671Z,15
2022-10-19T02:49:25.671Z,18
2022-10-19T02:50:25.685Z,18
2022-10-19T02:51:25.686Z,16
2022-10-19T02:52:25.672Z,17
2022-10-19T02:53:25.673Z,15
2022-10-19T02:54:25.686Z,13
2022-10-19T02:55:25.687Z,18
2022-10-19T02:56:25.674Z,14
2022-10-19T02:57:25.687Z,15
2022-10-19T02:58:25.687Z,11
2022-10-19T02:59:25.688Z,12
2022-10-19T03:00:25.675Z,13
2022-10-19T03:01:25.688Z,14
2022-10-19T03:02:25.689Z,13
2022-10-19T03:03:25.689Z,13
2022-10-19T03:04:25.676Z,18
2022-10-19T03:05:25.690Z,20
2022-10-19T03:06:25.691Z,19
2022-10-19T03:07:25.677Z,17
2022-10-19T03:08:25.678Z,19
2022-10-19T03:09:25.691Z,21
2022-10-19T03:10:25.692Z,21
2022-10-19T03:11:25.679Z,16
2022-10-19T03:12:25.679Z,19
2022-10-19T03:13:25.692Z,15
2022-10-19T03:14:25.693Z,16
2022-10-19T03:15:25.680Z,19
2022-10-19T03:16:25.693Z,14
2022-10-19T03:17:25.694Z,17
2022-10-19T03:18:25.694Z,15
2022-10-19T03:19:25.681Z,18
2022-10-19T03:20:25.695Z,19
2022-10-19T03:21:25.695Z,20
2022-10-19T03:22:25.695Z,16
2022-10-19T03:23:25.682Z,18
2022-10-19T03:24:25.696Z,15
2022-10-19T03:25:25.697Z,17
2022-10-19T03:26:25.684Z,17
2022-10-19T03:27:25.684Z,21
2022-10-19T03:28:25.697Z,19
2022-10-19T03:29:25.698Z,17
2022-10-19T03:30:25.685Z,18
2022-10-19T03:31:25.724Z,21
2022-10-19T03:32:25.699Z,12
2022-10-19T03:33:25.699Z,16
2022-10-19T03:34:25.686Z,18
2022-10-19T03:35:25.700Z,15
2022-10-19T03:36:25.700Z,14
2022-10-19T03:37:25.700Z,16
2022-10-19T03:38:25.687Z,18
2022-10-19T03:39:25.701Z,17
2022-10-19T03:40:25.702Z,17
2022-10-19T03:41:25.701Z,14
2022-10-19T03:42:25.689Z,16
2022-10-19T03:43:25.702Z,15
2022-10-19T03:44:25.703Z,16
2022-10-19T03:45:25.690Z,14
2022-10-19T03:46:25.690Z,18
2022-10-19T03:47:25.704Z,20
2022-10-19T03:48:25.704Z,18
2022-10-19T03:49:25.691Z,20
2022-10-19T03:50:25.691Z,23
2022-10-19T03:51:25.705Z,24
2022-10-19T03:52:25.705Z,20
2022-10-19T03:53:25.692Z,22
2022-10-19T03:54:25.706Z,23
2022-10-19T03:55:25.706Z,22
2022-10-19T03:56:25.707Z,24
2022-10-19T03:57:25.694Z,26
2022-10-19T03:58:25.707Z,23
2022-10-19T03:59:25.708Z,23
2022-10-19T04:00:25.708Z,22
2022-10-19T04:01:25.695Z,30
2022-10-19T04:02:25.709Z,23
2022-10-19T04:03:25.709Z,23
2022-10-19T04:04:25.696Z,23
2022-10-19T04:05:25.696Z,23
2022-10-19T04:06:25.710Z,24
2022-10-19T04:07:25.711Z,23
2022-10-19T04:08:25.697Z,23
2022-10-19T04:09:25.698Z,26
2022-10-19T04:10:25.711Z,21
2022-10-19T04:11:25.712Z,20
2022-10-19T04:12:25.699Z,21
2022-10-19T04:13:25.712Z,21
2022-10-19T04:14:25.713Z,21
2022-10-19T04:15:25.713Z,18
2022-10-19T04:16:25.700Z,19
2022-10-19T04:17:25.714Z,16
2022-10-19T04:18:25.714Z,20
2022-10-19T04:19:25.714Z,17
2022-10-19T04:20:25.701Z,14
2022-10-19T04:21:25.779Z,16
2022-10-19T04:22:25.716Z,18
2022-10-19T04:23:25.702Z,19
2022-10-19T04:24:25.703Z,17
2022-10-19T04:25:25.716Z,18
2022-10-19T04:26:25.717Z,18
2022-10-19T04:27:25.704Z,16
2022-10-19T04:28:25.718Z,16
2022-10-19T04:29:25.717Z,21
2022-10-19T04:30:25.718Z,19
2022-10-19T04:31:25.705Z,26
2022-10-19T04:32:25.719Z,22
2022-10-19T04:33:25.719Z,20
2022-10-19T04:34:25.719Z,24
2022-10-19T04:35:25.706Z,22
2022-10-19T04:36:25.720Z,24
2022-10-19T04:37:25.721Z,24
2022-10-19T04:38:25.721Z,21
2022-10-19T04:39:25.708Z,23
2022-10-19T04:40:25.762Z,26
2022-10-19T04:41:25.722Z,22
2022-10-19T04:42:25.709Z,22
2022-10-19T04:43:25.709Z,19
2022-10-19T04:44:25.723Z,21
2022-10-19T04:45:31.612Z,20
2022-10-19T04:46:25.710Z,20
2022-10-19T04:47:25.710Z,22
2022-10-19T04:48:25.724Z,27
2022-10-19T04:49:25.725Z,19
2022-10-19T04:50:25.711Z,24
2022-10-19T04:51:25.725Z,20
2022-10-19T04:52:25.725Z,23
2022-10-19T04:53:25.726Z,21
2022-10-19T04:54:25.713Z,24
2022-10-19T04:55:25.726Z,19
2022-10-19T04:56:25.727Z,20
2022-10-19T04:57:25.727Z,21
2022-10-19T04:58:25.714Z,22
2022-10-19T04:59:25.728Z,24
2022-10-19T05:00:25.728Z,30
2022-10-19T05:01:25.715Z,32
2022-10-19T05:02:25.716Z,38
2022-10-19T05:03:25.729Z,32
2022-10-19T05:04:25.730Z,31
2022-10-19T05:05:25.717Z,29
2022-10-19T05:06:25.717Z,31
2022-10-19T05:07:25.730Z,33
2022-10-19T05:08:25.731Z,25
2022-10-19T05:09:25.718Z,37
2022-10-19T05:10:25.731Z,33
2022-10-19T05:11:25.732Z,36
2022-10-19T05:12:25.732Z,33
2022-10-19T05:13:25.719Z,29
2022-10-19T05:14:25.733Z,30
2022-10-19T05:15:25.733Z,33
2022-10-19T05:16:25.733Z,31
2022-10-19T05:17:25.721Z,30
2022-10-19T05:18:25.734Z,34
2022-10-19T05:19:25.735Z,26
2022-10-19T05:20:25.722Z,34
2022-10-19T05:21:25.722Z,38
2022-10-19T05:22:25.735Z,38
2022-10-19T05:23:25.736Z,37
2022-10-19T05:24:25.723Z,41
2022-10-19T05:25:25.723Z,36
2022-10-19T05:26:25.737Z,35
2022-10-19T05:27:25.737Z,38
2022-10-19T05:28:25.724Z,34
2022-10-19T05:29:25.738Z,32
2022-10-19T05:30:25.738Z,34
2022-10-19T05:31:25.738Z,30
2022-10-19T05:32:25.726Z,32
2022-10-19T05:33:25.739Z,34
2022-10-19T05:34:25.740Z,30
2022-10-19T05:35:25.740Z,25
2022-10-19T05:36:25.727Z,30
2022-10-19T05:37:25.740Z,32
2022-10-19T05:38:25.741Z,28
2022-10-19T05:39:25.728Z,30
2022-10-19T05:40:25.728Z,34
2022-10-19T05:41:25.742Z,34
2022-10-19T05:42:25.743Z,27
2022-10-19T05:43:25.729Z,31
2022-10-19T05:44:25.793Z,34
2022-10-19T05:45:29.378Z,31
2022-10-19T05:46:25.793Z,32
2022-10-19T05:47:25.731Z,30
2022-10-19T05:48:25.744Z,29
2022-10-19T05:49:25.744Z,35
2022-10-19T05:50:25.745Z,32
2022-10-19T05:51:25.732Z,35
2022-10-19T05:52:25.745Z,32
2022-10-19T05:53:25.746Z,32
2022-10-19T05:54:25.746Z,37
2022-10-19T05:55:25.733Z,41
2022-10-19T05:56:25.747Z,35
2022-10-19T05:57:25.748Z,35
2022-10-19T05:58:25.734Z,32
2022-10-19T05:59:25.735Z,35
2022-10-19T06:00:25.748Z,36
2022-10-19T06:01:25.749Z,44
2022-10-19T06:02:25.736Z,40
2022-10-19T06:03:25.736Z,36
2022-10-19T06:04:25.750Z,29
2022-10-19T06:05:25.750Z,28
2022-10-19T06:06:25.737Z,26
2022-10-19T06:07:25.751Z,30
2022-10-19T06:08:25.751Z,28
2022-10-19T06:09:25.751Z,25
2022-10-19T06:10:25.738Z,26
2022-10-19T06:11:25.752Z,24
2022-10-19T06:12:25.753Z,26
2022-10-19T06:13:25.752Z,25
2022-10-19T06:14:25.740Z,27
2022-10-19T06:15:25.753Z,29
2022-10-19T06:16:25.754Z,23
2022-10-19T06:17:25.741Z,31
2022-10-19T06:18:25.741Z,31
2022-10-19T06:19:25.755Z,26
2022-10-19T06:20:25.755Z,29
2022-10-19T06:21:25.742Z,30
2022-10-19T06:22:25.743Z,37
2022-10-19T06:23:25.756Z,40
2022-10-19T06:24:25.756Z,29
2022-10-19T06:25:25.743Z,27
2022-10-19T06:26:25.757Z,25
2022-10-19T06:27:25.757Z,27
2022-10-19T06:28:25.758Z,30
2022-10-19T06:29:25.745Z,32
2022-10-19T06:30:25.759Z,38
2022-10-19T06:31:25.759Z,40
2022-10-19T06:32:25.759Z,36
2022-10-19T06:33:25.746Z,30
2022-10-19T06:34:25.760Z,28
2022-10-19T06:35:25.760Z,29
2022-10-19T06:36:25.747Z,37
2022-10-19T06:37:25.748Z,36
2022-10-19T06:38:25.761Z,36
2022-10-19T06:39:25.762Z,35
2022-10-19T06:41:25.763Z,31
2022-10-19T06:42:25.762Z,38
2022-10-19T06:43:25.763Z,34
2022-10-19T06:44:25.750Z,37
2022-10-19T06:45:25.763Z,38
2022-10-19T06:46:25.764Z,40
2022-10-19T06:47:25.764Z,42
2022-10-19T06:48:25.764Z,46
2022-10-19T06:49:25.765Z,38
2022-10-19T06:50:25.766Z,48
2022-10-19T06:51:25.765Z,51
2022-10-19T06:52:25.753Z,39
2022-10-19T06:53:25.766Z,43
2022-10-19T06:54:25.767Z,50
2022-10-19T06:55:25.754Z,50
2022-10-19T06:56:25.754Z,58
2022-10-19T06:57:25.767Z,60
2022-10-19T06:58:25.768Z,56
2022-10-19T06:59:25.755Z,55
2022-10-19T07:00:25.755Z,52
2022-10-19T07:01:25.769Z,46
2022-10-19T07:02:25.770Z,41
2022-10-19T07:03:25.756Z,37
2022-10-19T07:04:25.770Z,37
2022-10-19T07:05:25.770Z,37
2022-10-19T07:06:25.771Z,45
2022-10-19T07:07:25.758Z,54
2022-10-19T07:08:25.771Z,44
2022-10-19T07:09:25.799Z,52
2022-10-19T07:10:25.772Z,42
2022-10-19T07:11:25.759Z,45
2022-10-19T07:12:25.773Z,37
2022-10-19T07:13:25.773Z,44
2022-10-19T07:14:25.773Z,59
2022-10-19T07:15:25.761Z,62
2022-10-19T07:16:25.774Z,57
2022-10-19T07:17:25.775Z,42
2022-10-19T07:18:25.762Z,44
2022-10-19T07:19:25.762Z,48
2022-10-19T07:20:25.775Z,52
2022-10-19T07:21:25.840Z,47
2022-10-19T07:22:25.763Z,44
2022-10-19T07:23:25.777Z,53
2022-10-19T07:24:25.777Z,48
2022-10-19T07:25:25.777Z,47
2022-10-19T07:26:25.764Z,56
2022-10-19T07:27:25.778Z,55
2022-10-19T07:28:25.779Z,51
2022-10-19T07:29:25.779Z,53
2022-10-19T07:30:25.766Z,52
2022-10-19T07:31:25.780Z,51
2022-10-19T07:32:25.780Z,51
2022-10-19T07:33:25.767Z,56
2022-10-19T07:34:25.767Z,67
2022-10-19T07:35:25.781Z,63
2022-10-19T07:36:25.782Z,60
2022-10-19T07:37:25.768Z,54
2022-10-19T07:38:25.769Z,56
2022-10-19T07:39:25.782Z,55
2022-10-19T07:40:25.783Z,58
2022-10-19T07:41:25.770Z,60
2022-10-19T07:42:25.784Z,64
2022-10-19T07:43:25.784Z,67
2022-10-19T07:44:25.784Z,70
2022-10-19T07:45:25.784Z,72
2022-10-19T07:46:25.785Z,64
2022-10-19T07:47:25.786Z,67
2022-10-19T07:48:25.786Z,64
2022-10-19T07:49:25.773Z,68
2022-10-19T07:50:25.787Z,55
2022-10-19T07:51:25.787Z,53
2022-10-19T07:52:25.774Z,60
2022-10-19T07:53:25.774Z,58
2022-10-19T07:54:25.788Z,52
2022-10-19T07:55:25.789Z,46
2022-10-19T07:57:25.776Z,50
2022-10-19T07:59:25.854Z,53
2022-10-19T08:00:25.777Z,41
2022-10-19T08:01:25.790Z,42
2022-10-19T08:02:25.791Z,37
2022-10-19T08:03:25.791Z,50
2022-10-19T08:04:25.778Z,44
2022-10-19T08:05:25.792Z,43
2022-10-19T08:06:25.792Z,43
2022-10-19T08:07:25.793Z,45
2022-10-19T08:08:25.780Z,49
2022-10-19T08:09:25.793Z,56
2022-10-19T08:10:25.794Z,62
2022-10-19T08:11:25.794Z,57
2022-10-19T08:12:25.781Z,58
2022-10-19T08:13:25.795Z,51
2022-10-19T08:14:25.796Z,53
2022-10-19T08:15:25.782Z,60
2022-10-19T08:16:25.783Z,70
2022-10-19T08:17:25.796Z,52
2022-10-19T08:18:25.797Z,53
2022-10-19T08:19:25.784Z,57
2022-10-19T08:20:25.839Z,56
2022-10-19T08:21:25.798Z,57
2022-10-19T08:22:25.798Z,49
2022-10-19T08:23:25.785Z,52
2022-10-19T08:24:25.799Z,52
2022-10-19T08:25:25.799Z,42
2022-10-19T08:26:25.800Z,50
2022-10-19T08:27:25.787Z,56
2022-10-19T08:28:25.801Z,59
2022-10-19T08:29:25.802Z,50
2022-10-19T08:30:25.802Z,49
2022-10-19T08:31:25.789Z,59
2022-10-19T08:32:25.803Z,52
2022-10-19T08:33:25.803Z,62
2022-10-19T08:34:25.790Z,53
2022-10-19T08:35:25.791Z,53
2022-10-19T08:36:25.804Z,53
2022-10-19T08:37:25.805Z,53
2022-10-19T08:38:25.792Z,65
2022-10-19T08:39:25.832Z,59
2022-10-19T08:40:25.806Z,75
2022-10-19T08:41:25.806Z,70
2022-10-19T08:42:25.793Z,55
2022-10-19T08:43:25.807Z,55
2022-10-19T08:44:25.807Z,56
2022-10-19T08:45:25.808Z,66
2022-10-19T08:46:25.795Z,71
2022-10-19T08:47:25.809Z,59
2022-10-19T08:48:25.810Z,79
2022-10-19T08:49:25.810Z,76
2022-10-19T08:50:25.797Z,75
2022-10-19T08:51:25.875Z,78
2022-10-19T08:52:25.812Z,61
2022-10-19T08:53:25.798Z,69
2022-10-19T08:54:25.798Z,70
2022-10-19T08:55:25.812Z,72
2022-10-19T08:56:25.813Z,65
2022-10-19T08:57:25.800Z,62
2022-10-19T08:58:25.815Z,66
2022-10-19T08:59:25.814Z,57
2022-10-19T09:00:25.814Z,53
2022-10-19T09:01:25.801Z,64
2022-10-19T09:02:25.815Z,58
2022-10-19T09:03:25.815Z,58
2022-10-19T09:04:25.816Z,64
2022-10-19T09:05:25.803Z,64
2022-10-19T09:06:25.817Z,72
2022-10-19T09:07:25.818Z,57
2022-10-19T09:08:25.817Z,58
2022-10-19T09:09:25.805Z,66
2022-10-19T09:10:25.818Z,70
2022-10-19T09:11:25.820Z,76
2022-10-19T09:12:25.806Z,83
2022-10-19T09:13:25.806Z,73
2022-10-19T09:14:25.820Z,72
2022-10-19T09:15:25.821Z,77
2022-10-19T09:16:25.808Z,83
2022-10-19T09:17:25.808Z,77
2022-10-19T09:18:25.822Z,77
2022-10-19T09:19:25.822Z,79
2022-10-19T09:20:25.810Z,73
2022-10-19T09:21:25.823Z,69
2022-10-19T09:22:25.824Z,56
2022-10-19T09:23:25.824Z,60
2022-10-19T09:24:25.811Z,60
2022-10-19T09:25:25.825Z,61
2022-10-19T09:26:25.826Z,51
2022-10-19T09:27:25.826Z,59
2022-10-19T09:28:25.813Z,68
2022-10-19T09:29:25.827Z,63
2022-10-19T09:30:25.828Z,72
2022-10-19T09:31:25.815Z,77
2022-10-19T09:32:25.815Z,71
2022-10-19T09:33:25.829Z,61
2022-10-19T09:34:25.830Z,63
2022-10-19T09:35:25.817Z,61
2022-10-19T09:36:25.817Z,60
2022-10-19T09:37:25.831Z,55
2022-10-19T09:38:25.831Z,55
2022-10-19T09:39:25.818Z,56
2022-10-19T09:40:25.832Z,51
2022-10-19T09:41:25.832Z,61
2022-10-19T09:42:25.833Z,56
2022-10-19T09:43:25.820Z,54
2022-10-19T09:44:25.834Z,55
2022-10-19T09:45:25.835Z,59
2022-10-19T09:47:25.822Z,53
2022-10-19T09:48:25.836Z,49
2022-10-19T09:49:25.837Z,49
2022-10-19T09:50:25.824Z,58
2022-10-19T09:51:25.824Z,52
2022-10-19T09:52:25.838Z,55
2022-10-19T09:53:25.839Z,55
2022-10-19T09:54:25.826Z,59
2022-10-19T09:55:25.841Z,65
2022-10-19T09:56:25.840Z,58
2022-10-19T09:57:25.840Z,55
2022-10-19T09:58:25.828Z,64
2022-10-19T09:59:25.841Z,76
2022-10-19T10:00:25.842Z,71
2022-10-19T10:01:25.842Z,77
2022-10-19T10:02:25.829Z,74
2022-10-19T10:03:25.843Z,71
2022-10-19T10:04:25.844Z,74
2022-10-19T10:05:25.844Z,76
2022-10-19T10:06:25.831Z,77
2022-10-19T10:07:25.845Z,78
2022-10-19T10:08:25.846Z,95
2022-10-19T10:09:25.833Z,90
2022-10-19T10:10:25.833Z,76
2022-10-19T10:11:25.847Z,77
2022-10-19T10:12:25.848Z,76
2022-10-19T10:13:25.835Z,67
2022-10-19T10:14:25.835Z,72
2022-10-19T10:15:25.849Z,67
2022-10-19T10:16:25.849Z,67
2022-10-19T10:17:25.836Z,61
2022-10-19T10:18:25.850Z,59
2022-10-19T10:19:25.851Z,62
2022-10-19T10:20:25.851Z,59
2022-10-19T10:21:25.838Z,71
2022-10-19T10:22:25.852Z,72
2022-10-19T10:23:25.853Z,71
2022-10-19T10:24:25.853Z,62
2022-10-19T10:25:25.841Z,65
2022-10-19T10:26:25.854Z,73
2022-10-19T10:27:25.855Z,68
2022-10-19T10:28:25.842Z,60
2022-10-19T10:29:25.843Z,68
2022-10-19T10:30:25.857Z,68
2022-10-19T10:31:25.857Z,68
2022-10-19T10:32:25.844Z,70
2022-10-19T10:33:25.845Z,75
2022-10-19T10:34:25.858Z,69
2022-10-19T10:35:25.859Z,71
2022-10-19T10:37:25.860Z,75
2022-10-19T10:38:25.861Z,69
2022-10-19T10:39:25.861Z,82
2022-10-19T10:40:25.849Z,73
2022-10-19T10:41:25.862Z,72
2022-10-19T10:42:25.864Z,68
2022-10-19T10:43:25.863Z,58
2022-10-19T10:44:25.851Z,57
2022-10-19T10:45:25.865Z,62
2022-10-19T10:46:25.866Z,65
2022-10-19T10:47:25.853Z,53
2022-10-19T10:48:25.853Z,66
2022-10-19T10:49:25.867Z,64
2022-10-19T10:50:25.868Z,64
2022-10-19T10:51:25.855Z,65
2022-10-19T10:52:25.856Z,72
2022-10-19T10:53:25.869Z,70
2022-10-19T10:54:25.870Z,65
2022-10-19T10:55:25.857Z,59
2022-10-19T10:56:25.871Z,62
2022-10-19T10:57:25.872Z,54
2022-10-19T10:58:25.872Z,61
2022-10-19T10:59:25.860Z,62
2022-10-19T11:00:25.874Z,52
2022-10-19T11:01:25.875Z,56
2022-10-19T11:02:25.875Z,50
2022-10-19T11:03:25.862Z,61
2022-10-19T11:04:25.876Z,64
2022-10-19T11:05:25.877Z,59
2022-10-19T11:06:25.864Z,66
2022-10-19T11:07:25.864Z,76
2022-10-19T11:08:25.878Z,71
2022-10-19T11:09:25.879Z,75
2022-10-19T11:10:25.866Z,68
2022-10-19T11:11:25.866Z,62
2022-10-19T11:12:25.880Z,59
2022-10-19T11:13:25.880Z,65
2022-10-19T11:14:25.868Z,61
2022-10-19T11:15:25.881Z,61
2022-10-19T11:16:25.882Z,78
2022-10-19T11:17:25.882Z,68
2022-10-19T11:18:25.882Z,71
2022-10-19T11:19:25.883Z,81
2022-10-19T11:20:25.884Z,78
2022-10-19T11:21:25.884Z,79
2022-10-19T11:22:25.871Z,66
2022-10-19T11:23:25.885Z,67
2022-10-19T11:24:25.886Z,83
2022-10-19T11:25:25.873Z,88
2022-10-19T11:26:25.873Z,76
2022-10-19T11:27:25.887Z,72
2022-10-19T11:28:25.888Z,63
2022-10-19T11:29:25.875Z,72
2022-10-19T11:30:25.875Z,68
2022-10-19T11:31:25.889Z,62
2022-10-19T11:32:25.889Z,60
2022-10-19T11:33:25.877Z,74
2022-10-19T11:34:25.891Z,85
2022-10-19T11:35:25.891Z,80
2022-10-19T11:36:25.892Z,77
2022-10-19T11:37:25.879Z,72
2022-10-19T11:38:25.893Z,75
2022-10-19T11:39:25.894Z,75
2022-10-19T11:40:25.894Z,82
2022-10-19T11:41:25.882Z,86
2022-10-19T11:42:25.945Z,88
2022-10-19T11:43:25.896Z,100
2022-10-19T11:44:25.883Z,87
2022-10-19T11:45:25.884Z,95
2022-10-19T11:46:25.898Z,92
2022-10-19T11:47:25.899Z,87
2022-10-19T11:48:25.886Z,74
2022-10-19T11:49:25.899Z,65
2022-10-19T11:50:25.900Z,59
2022-10-19T11:51:25.900Z,69
2022-10-19T11:52:25.888Z,68
2022-10-19T11:53:25.901Z,57
2022-10-19T11:54:25.902Z,57
2022-10-19T11:55:25.902Z,59
2022-10-19T11:56:25.890Z,64
2022-10-19T11:57:25.904Z,77
2022-10-19T11:58:25.905Z,78
2022-10-19T11:59:25.905Z,73
2022-10-19T12:00:25.892Z,71
2022-10-19T12:01:25.956Z,65
2022-10-19T12:02:25.907Z,58
2022-10-19T12:03:25.894Z,56
2022-10-19T12:04:25.894Z,64
2022-10-19T12:05:25.908Z,58
2022-10-19T12:06:25.909Z,60
2022-10-19T12:07:25.896Z,62
2022-10-19T12:08:25.897Z,56
2022-10-19T12:09:25.910Z,53
2022-10-19T12:10:25.911Z,54
2022-10-19T12:11:25.898Z,68
2022-10-19T12:12:25.912Z,67
2022-10-19T12:13:25.912Z,60
2022-10-19T12:14:25.913Z,53
2022-10-19T12:15:25.900Z,62
2022-10-19T12:16:25.914Z,70
2022-10-19T12:17:25.915Z,65
2022-10-19T12:18:25.915Z,69
2022-10-19T12:19:25.902Z,64
2022-10-19T12:20:25.916Z,58
2022-10-19T12:21:25.917Z,53
2022-10-19T12:22:25.904Z,53
2022-10-19T12:23:25.904Z,58
2022-10-19T12:24:25.918Z,65
2022-10-19T12:25:25.919Z,64
2022-10-19T12:26:25.906Z,61
2022-10-19T12:27:25.984Z,74
2022-10-19T12:28:25.920Z,68
2022-10-19T12:29:25.920Z,60
2022-10-19T12:30:25.908Z,56
2022-10-19T12:31:25.922Z,72
2022-10-19T12:32:25.922Z,72
2022-10-19T12:33:25.922Z,65
2022-10-19T12:34:25.910Z,73
2022-10-19T12:35:25.924Z,69
2022-10-19T12:36:25.925Z,69
2022-10-19T12:37:25.925Z,77
2022-10-19T12:38:25.912Z,70
2022-10-19T12:39:25.926Z,69
2022-10-19T12:40:25.927Z,68
2022-10-19T12:41:25.914Z,58
2022-10-19T12:42:25.914Z,61
2022-10-19T12:43:25.928Z,67
2022-10-19T12:44:25.929Z,59
2022-10-19T12:45:25.916Z,67
2022-10-19T12:46:25.930Z,77
2022-10-19T12:47:25.930Z,71
2022-10-19T12:48:25.930Z,62
2022-10-19T12:49:25.918Z,61
2022-10-19T12:50:25.931Z,66
2022-10-19T12:51:25.977Z,71
2022-10-19T12:52:25.932Z,56
2022-10-19T12:53:25.920Z,65
2022-10-19T12:54:25.933Z,79
2022-10-19T12:55:25.934Z,73
2022-10-19T12:56:25.934Z,66
2022-10-19T12:57:25.922Z,54
2022-10-19T12:58:25.935Z,57
2022-10-19T13:00:25.923Z,58
2022-10-19T13:01:25.923Z,53
2022-10-19T13:02:25.937Z,57
2022-10-19T13:03:26.002Z,61
2022-10-19T13:04:25.925Z,57
2022-10-19T13:05:25.938Z,60
2022-10-19T13:06:31.622Z,53
2022-10-19T13:07:25.939Z,52
2022-10-19T13:08:25.927Z,57
2022-10-19T13:09:25.940Z,63
2022-10-19T13:10:25.941Z,65
2022-10-19T13:11:25.941Z,65
2022-10-19T13:12:25.929Z,52
2022-10-19T13:13:25.943Z,60
2022-10-19T13:14:25.943Z,70
2022-10-19T13:15:25.943Z,70
2022-10-19T13:16:25.931Z,58
2022-10-19T13:17:25.945Z,60
2022-10-19T13:18:25.946Z,62
2022-10-19T13:19:25.932Z,58
2022-10-19T13:20:25.933Z,75
2022-10-19T13:21:25.946Z,82
2022-10-19T13:22:25.947Z,81
2022-10-19T13:23:25.934Z,74
2022-10-19T13:24:25.989Z,80
2022-10-19T13:25:25.948Z,81
2022-10-19T13:26:25.949Z,77
2022-10-19T13:27:25.936Z,82
2022-10-19T13:28:25.950Z,73
2022-10-19T13:29:25.950Z,78
2022-10-19T13:30:25.951Z,84
2022-10-19T13:31:25.938Z,66
2022-10-19T13:32:25.952Z,87
2022-10-19T13:33:25.953Z,80
2022-10-19T13:34:25.953Z,72
2022-10-19T13:35:25.940Z,71
2022-10-19T13:36:25.954Z,72
2022-10-19T13:37:25.955Z,81
2022-10-19T13:38:25.942Z,75
2022-10-19T13:39:25.942Z,82
2022-10-19T13:40:25.956Z,77
2022-10-19T13:41:25.957Z,76
2022-10-19T13:42:25.944Z,76
2022-10-19T13:43:25.944Z,76
2022-10-19T13:44:25.958Z,80
2022-10-19T13:45:25.958Z,88
2022-10-19T13:46:25.946Z,78
2022-10-19T13:47:25.959Z,84
2022-10-19T13:48:25.960Z,89
2022-10-19T13:49:25.960Z,82
2022-10-19T13:50:25.948Z,77
2022-10-19T13:51:25.961Z,79
2022-10-19T13:52:25.962Z,86
2022-10-19T13:53:25.962Z,86
2022-10-19T13:54:25.950Z,80
2022-10-19T13:55:25.963Z,74
2022-10-19T13:56:25.964Z,81
2022-10-19T13:57:25.951Z,78
2022-10-19T13:58:25.951Z,78
2022-10-19T13:59:25.965Z,85
2022-10-19T14:00:25.966Z,85
2022-10-19T14:01:25.953Z,82
2022-10-19T14:02:26.008Z,75
2022-10-19T14:03:25.967Z,78
2022-10-19T14:04:25.967Z,68
2022-10-19T14:05:25.955Z,71
2022-10-19T14:06:29.387Z,81
2022-10-19T14:07:25.969Z,83
2022-10-19T14:08:25.969Z,77
2022-10-19T14:09:25.956Z,72
2022-10-19T14:10:25.970Z,68
2022-10-19T14:11:25.971Z,72
2022-10-19T14:12:25.971Z,78
2022-10-19T14:13:25.958Z,69
2022-10-19T14:14:25.972Z,67
2022-10-19T14:15:25.973Z,76
2022-10-19T14:16:25.960Z,75
2022-10-19T14:17:25.960Z,66
2022-10-19T14:18:25.974Z,59
2022-10-19T14:19:25.975Z,64
2022-10-19T14:20:25.961Z,60
2022-10-19T14:21:25.962Z,67
2022-10-19T14:22:25.976Z,74